Time;durP1;ratioP1;P1;durP2;ratioP2;P2;SDS_P1;SDS_P2;PMS_P1;PMS_P2;Temp;Humidity;BMP_temperature;BMP_pressure;BME280_temperature;BME280_humidity;BME280_pressure;Samples;Min_cycle;Max_cycle;Signal;HPM_P1;HPM_P2
2020/12/02 00:01:17;;;;;;;15.90;9.65;;;;;;;0.50;86.41;101652.80;1788801;78;21426;-70
2020/12/02 00:04:10;;;;;;;15.55;10.05;;;;;;;0.50;86.44;101655.93;1795970;78;21199;-70
2020/12/02 00:06:40;;;;;;;15.10;9.30;;;;;;;0.49;86.45;101656.39;1791656;77;21185;-72
2020/12/02 00:09:14;;;;;;;13.80;9.13;;;;;;;0.49;86.54;101656.39;1778343;78;21178;-72
2020/12/02 00:11:41;;;;;;;14.65;9.00;;;;;;;0.47;86.57;101661.02;1801054;77;21200;-72
2020/12/02 00:14:13;;;;;;;15.03;8.68;;;;;;;0.46;86.60;101656.72;1763017;80;21387;-73
2020/12/02 00:16:41;;;;;;;12.65;8.40;;;;;;;0.49;86.66;101656.39;1793054;78;21644;-70
2020/12/02 00:19:08;;;;;;;15.68;10.03;;;;;;;0.50;86.64;101649.36;1777021;78;21970;-74
2020/12/02 00:21:35;;;;;;;16.93;9.90;;;;;;;0.50;86.67;101650.67;1750538;80;21234;-73
2020/12/02 00:24:03;;;;;;;15.25;10.03;;;;;;;0.49;86.71;101645.88;1783682;80;21143;-75
2020/12/02 00:26:31;;;;;;;12.98;8.05;;;;;;;0.49;86.73;101651.14;1788601;78;21553;-73
2020/12/02 00:28:58;;;;;;;14.65;9.10;;;;;;;0.50;86.74;101647.55;1770291;79;21651;-74
2020/12/02 00:31:26;;;;;;;13.50;7.80;;;;;;;0.50;86.77;101655.93;1812863;78;21880;-74
2020/12/02 00:33:54;;;;;;;15.13;9.10;;;;;;;0.50;86.80;101658.06;1817358;78;21265;-74
2020/12/02 00:36:21;;;;;;;13.20;8.93;;;;;;;0.49;86.80;101655.08;1793623;78;21174;-73
2020/12/02 00:38:48;;;;;;;13.05;8.38;;;;;;;0.49;86.82;101658.20;1797637;77;21435;-74
2020/12/02 00:41:16;;;;;;;14.25;9.43;;;;;;;0.48;86.82;101659.20;1804800;78;21207;-75
2020/12/02 00:43:43;;;;;;;14.90;9.20;;;;;;;0.47;86.84;101658.38;1802890;78;21181;-73
2020/12/02 00:46:10;;;;;;;15.75;9.58;;;;;;;0.47;86.85;101651.81;1731351;80;21250;-74
2020/12/02 00:48:40;;;;;;;14.00;9.48;;;;;;;0.46;86.82;101647.52;1748996;78;21165;-73
2020/12/02 00:51:07;;;;;;;12.98;8.68;;;;;;;0.45;86.85;101649.33;1789684;78;21535;-75
2020/12/02 00:53:35;;;;;;;14.05;9.23;;;;;;;0.47;86.88;101651.81;1789972;78;21213;-73
2020/12/02 00:56:05;;;;;;;16.80;10.70;;;;;;;0.44;86.86;101652.14;1795984;78;21456;-73
2020/12/02 00:58:46;;;;;;;13.93;9.60;;;;;;;0.44;86.85;101653.45;1771926;79;21545;-73
2020/12/02 01:01:19;;;;;;;14.15;8.63;;;;;;;0.43;86.82;101648.69;1779871;79;21232;-70
2020/12/02 01:03:48;;;;;;;13.95;9.03;;;;;;;0.43;86.84;101650.50;1776079;80;21857;-70
2020/12/02 01:06:16;;;;;;;15.65;9.95;;;;;;;0.43;86.87;101655.76;1792214;78;21151;-71
2020/12/02 01:08:45;;;;;;;15.68;9.45;;;;;;;0.43;86.88;101653.13;1799431;77;21175;-70
2020/12/02 01:11:26;;;;;;;14.38;9.63;;;;;;;0.43;86.87;101653.95;1769148;78;22242;-73
2020/12/02 01:14:02;;;;;;;16.73;10.23;;;;;;;0.41;86.86;101648.52;1769150;78;21166;-71
2020/12/02 01:16:37;;;;;;;16.93;10.15;;;;;;;0.40;86.86;101652.14;1796633;77;21874;-70
2020/12/02 01:19:08;;;;;;;16.77;10.48;;;;;;;0.39;86.87;101651.79;1778950;79;21216;-73
2020/12/02 01:21:47;;;;;;;14.45;9.35;;;;;;;0.39;86.88;101650.48;1795177;78;21647;-71
2020/12/02 01:24:22;;;;;;;14.87;9.28;;;;;;;0.40;86.88;101650.33;1795193;77;21714;-72
2020/12/02 01:26:54;;;;;;;17.05;11.40;;;;;;;0.39;86.87;101646.53;1806397;78;21747;-73
2020/12/02 01:29:23;;;;;;;17.27;10.40;;;;;;;0.38;86.90;101647.03;1798002;77;21355;-72
2020/12/02 01:31:54;;;;;;;14.00;8.88;;;;;;;0.42;86.94;101644.89;1815983;77;21164;-70
2020/12/02 01:34:22;;;;;;;15.70;10.45;;;;;;;0.45;86.90;101644.08;1789925;78;21162;-72
2020/12/02 01:37:07;;;;;;;18.55;11.30;;;;;;;0.43;86.85;101636.86;1791072;78;21162;-71
2020/12/02 01:39:39;;;;;;;16.62;9.73;;;;;;;0.44;86.90;101639.00;1796049;77;21200;-71
2020/12/02 01:42:08;;;;;;;15.35;9.45;;;;;;;0.48;86.92;101638.17;1813386;77;27531;-72
2020/12/02 01:44:35;;;;;;;19.73;11.25;;;;;;;0.48;86.92;101636.86;1737539;79;21238;-71
2020/12/02 01:47:40;;;;;;;17.00;10.48;;;;;;;0.48;86.88;101632.92;1791089;78;21178;-72
2020/12/02 01:50:40;;;;;;;16.07;10.65;;;;;;;0.48;86.82;101635.05;1800705;77;21166;-72
2020/12/02 01:53:28;;;;;;;15.25;9.18;;;;;;;0.45;86.80;101634.06;1811569;77;21129;-72
2020/12/02 01:56:01;;;;;;;17.17;10.03;;;;;;;0.46;86.85;101626.49;1796153;77;21665;-72
2020/12/02 01:58:52;;;;;;;17.10;10.68;;;;;;;0.44;86.79;101628.48;1799924;78;21192;-73
2020/12/02 02:01:25;;;;;;;16.07;9.80;;;;;;;0.42;86.73;101631.25;1773694;79;21203;-73
2020/12/02 02:03:53;;;;;;;17.00;10.63;;;;;;;0.41;86.72;101627.00;1759987;81;21171;-72
2020/12/02 02:06:26;;;;;;;16.55;9.90;;;;;;;0.42;86.76;101626.00;1780205;78;21173;-72
2020/12/02 02:08:53;;;;;;;13.60;8.45;;;;;;;0.44;86.78;101620.59;1788365;77;21815;-73
2020/12/02 02:11:22;;;;;;;14.50;9.20;;;;;;;0.43;86.74;101625.03;1772445;78;21222;-72
2020/12/02 02:14:04;;;;;;;16.93;10.48;;;;;;;0.44;86.72;101621.91;1773015;80;21164;-72
2020/12/02 02:16:40;;;;;;;16.67;9.93;;;;;;;0.43;86.70;101614.52;1715566;80;21188;-73
2020/12/02 02:19:20;;;;;;;15.70;9.80;;;;;;;0.42;86.65;101615.98;1793447;77;21190;-73
2020/12/02 02:21:52;;;;;;;16.27;10.08;;;;;;;0.39;86.68;101618.94;1803777;77;22372;-73
2020/12/02 02:24:21;;;;;;;14.87;9.98;;;;;;;0.39;86.69;101613.69;1793259;78;21680;-73
2020/12/02 02:26:54;;;;;;;14.33;9.30;;;;;;;0.41;86.69;101621.73;1802093;78;21181;-73
2020/12/02 02:29:32;;;;;;;15.15;9.85;;;;;;;0.41;86.64;101615.66;1791926;78;21712;-72
2020/12/02 02:32:14;;;;;;;13.55;8.73;;;;;;;0.38;86.64;101622.06;1809550;77;21624;-73
2020/12/02 02:34:45;;;;;;;15.88;9.40;;;;;;;0.39;86.69;101622.88;1804109;78;21849;-73
2020/12/02 02:37:13;;;;;;;15.32;9.48;;;;;;;0.37;86.64;101622.24;1801881;78;21692;-73
2020/12/02 02:39:42;;;;;;;13.70;9.20;;;;;;;0.37;86.63;101616.98;1793346;78;21221;-72
2020/12/02 02:42:33;;;;;;;13.43;8.80;;;;;;;0.35;86.60;101618.95;1798788;77;21196;-73
2020/12/02 02:45:05;;;;;;;15.48;9.78;;;;;;;0.35;86.60;101624.20;1785423;78;21186;-72
2020/12/02 02:47:32;;;;;;;13.45;8.28;;;;;;;0.31;86.59;101625.02;1800164;78;21159;-73
2020/12/02 02:50:00;;;;;;;16.12;9.55;;;;;;;0.34;86.61;101625.20;1791876;78;21688;-73
2020/12/02 02:52:27;;;;;;;14.90;9.35;;;;;;;0.32;86.56;101629.28;1796898;78;21582;-74
2020/12/02 02:54:54;;;;;;;14.87;8.83;;;;;;;0.30;86.55;101631.77;1783868;79;21235;-73
2020/12/02 02:57:22;;;;;;;13.88;8.83;;;;;;;0.27;86.55;101622.89;1789731;78;21185;-73
2020/12/02 02:59:49;;;;;;;14.43;9.73;;;;;;;0.27;86.56;101629.46;1789698;77;21215;-74
2020/12/02 03:02:17;;;;;;;14.18;9.18;;;;;;;0.26;86.56;101633.87;1783727;79;21206;-73
2020/12/02 03:04:45;;;;;;;15.08;9.40;;;;;;;0.29;86.60;101628.79;1787571;78;21205;-73
2020/12/02 03:07:15;;;;;;;14.43;9.43;;;;;;;0.29;86.58;101632.23;1800893;78;21227;-72
2020/12/02 03:09:44;;;;;;;17.52;9.80;;;;;;;0.29;86.58;101635.36;1788600;78;21173;-73
2020/12/02 03:12:11;;;;;;;16.90;9.95;;;;;;;0.28;86.57;101638.98;1804600;77;22237;-72
2020/12/02 03:14:41;;;;;;;14.55;8.88;;;;;;;0.29;86.53;101637.48;1791678;78;21190;-73
2020/12/02 03:17:12;;;;;;;18.77;10.75;;;;;;;0.24;86.45;101631.92;1789635;78;21676;-73
2020/12/02 03:19:43;;;;;;;17.67;9.93;;;;;;;0.17;86.27;101634.87;1798762;79;21196;-73
2020/12/02 03:22:11;;;;;;;16.45;9.78;;;;;;;0.09;86.18;101637.47;1772340;78;22090;-72
2020/12/02 03:24:41;;;;;;;16.97;9.68;;;;;;;0.04;86.16;101637.96;1811631;77;22147;-73
2020/12/02 03:27:08;;;;;;;19.15;11.12;;;;;;;-0.01;86.19;101633.17;1792406;77;21194;-73
2020/12/02 03:29:35;;;;;;;18.92;11.20;;;;;;;-0.05;86.23;101640.23;1789861;78;21636;-72
2020/12/02 03:32:03;;;;;;;17.05;9.80;;;;;;;-0.05;86.31;101642.86;1801183;77;21168;-73
2020/12/02 03:34:30;;;;;;;18.95;10.72;;;;;;;-0.03;86.33;101635.16;1795743;78;21753;-73
2020/12/02 03:36:57;;;;;;;18.90;11.12;;;;;;;-0.05;86.24;101641.55;1789704;78;21779;-72
2020/12/02 03:39:25;;;;;;;20.15;11.45;;;;;;;-0.08;86.17;101644.48;1788776;78;21176;-73
2020/12/02 03:41:52;;;;;;;22.75;12.13;;;;;;;-0.15;86.11;101646.12;1783446;78;21154;-73
2020/12/02 03:44:20;;;;;;;22.07;12.18;;;;;;;-0.17;86.12;101649.38;1830555;77;21123;-72
2020/12/02 03:46:48;;;;;;;22.30;12.20;;;;;;;-0.16;86.17;101646.61;1793674;79;21202;-73
2020/12/02 03:49:15;;;;;;;25.52;14.47;;;;;;;-0.17;86.15;101636.25;1765799;80;22339;-72
2020/12/02 03:51:43;;;;;;;23.32;12.93;;;;;;;-0.20;86.16;101643.95;1796265;77;21599;-72
2020/12/02 03:54:10;;;;;;;21.17;11.00;;;;;;;-0.19;86.12;101645.61;1787948;78;21660;-72
2020/12/02 03:56:38;;;;;;;24.07;13.50;;;;;;;-0.20;86.08;101639.19;1803837;78;21222;-73
2020/12/02 03:59:08;;;;;;;23.15;13.05;;;;;;;-0.22;86.09;101635.43;1814302;78;22415;-73
2020/12/02 04:01:35;;;;;;;21.60;11.70;;;;;;;-0.22;86.11;101639.86;1803611;77;21818;-73
2020/12/02 04:04:03;;;;;;;20.65;12.20;;;;;;;-0.23;86.15;101642.98;1802887;78;21159;-72
2020/12/02 04:06:30;;;;;;;20.20;11.33;;;;;;;-0.24;86.09;101638.20;1794711;78;22274;-73
2020/12/02 04:08:58;;;;;;;22.87;13.22;;;;;;;-0.25;86.04;101640.50;1803881;78;21189;-73
2020/12/02 04:11:25;;;;;;;19.70;11.03;;;;;;;-0.27;85.97;101640.32;1813459;78;21170;-73
2020/12/02 04:13:53;;;;;;;19.40;11.20;;;;;;;-0.30;85.97;101644.57;1802032;77;21396;-72
2020/12/02 04:16:21;;;;;;;22.98;12.95;;;;;;;-0.32;85.92;101643.44;1789152;78;21675;-72
2020/12/02 04:18:48;;;;;;;20.02;10.55;;;;;;;-0.35;85.94;101649.00;1796459;77;21509;-72
2020/12/02 04:21:25;;;;;;;19.98;11.20;;;;;;;-0.35;85.99;101650.31;1809666;78;21754;-72
2020/12/02 04:23:53;;;;;;;21.93;12.05;;;;;;;-0.39;85.97;101647.67;1731327;80;21195;-72
2020/12/02 04:26:21;;;;;;;21.27;12.00;;;;;;;-0.37;85.95;101648.81;1795893;78;21344;-73
2020/12/02 04:28:49;;;;;;;23.85;13.28;;;;;;;-0.39;85.96;101646.37;1802043;78;21176;-72
2020/12/02 04:31:18;;;;;;;19.57;10.78;;;;;;;-0.36;85.97;101646.52;1784871;78;21683;-73
2020/12/02 04:33:45;;;;;;;21.33;12.07;;;;;;;-0.36;85.93;101643.89;1793670;78;21250;-72
2020/12/02 04:36:13;;;;;;;22.77;11.90;;;;;;;-0.37;85.84;101638.31;1806404;77;21181;-73
2020/12/02 04:38:40;;;;;;;19.80;10.78;;;;;;;-0.37;85.86;101637.83;1793842;78;21378;-73
2020/12/02 04:41:15;;;;;;;23.77;11.95;;;;;;;-0.36;85.81;101640.80;1787956;78;21177;-73
2020/12/02 04:43:46;;;;;;;23.62;12.85;;;;;;;-0.40;85.73;101644.70;1781537;78;21118;-73
2020/12/02 04:46:28;;;;;;;23.77;12.60;;;;;;;-0.44;85.64;101640.75;1759426;78;21183;-73
2020/12/02 04:49:02;;;;;;;25.40;13.43;;;;;;;-0.46;85.61;101640.11;1768568;79;21518;-73
2020/12/02 04:51:30;;;;;;;24.20;13.22;;;;;;;-0.51;85.61;101636.63;1795414;78;21601;-73
2020/12/02 04:53:58;;;;;;;20.72;12.45;;;;;;;-0.51;85.70;101637.94;1801071;77;21158;-72
2020/12/02 04:56:27;;;;;;;24.43;13.50;;;;;;;-0.49;85.73;101639.92;1792175;78;21608;-73
2020/12/02 04:58:56;;;;;;;21.87;13.15;;;;;;;-0.48;85.69;101641.56;1790984;78;21183;-74
2020/12/02 05:01:33;;;;;;;23.20;12.78;;;;;;;-0.46;85.72;101647.98;1809372;78;21195;-73
2020/12/02 05:04:07;;;;;;;21.07;11.55;;;;;;;-0.45;85.73;101641.74;1806543;77;21324;-74
2020/12/02 05:06:38;;;;;;;21.35;12.70;;;;;;;-0.42;85.71;101646.67;1768938;80;21198;-73
2020/12/02 05:09:24;;;;;;;18.75;11.10;;;;;;;-0.40;85.69;101644.70;1796459;74;21168;-73
2020/12/02 05:12:09;;;;;;;22.60;13.15;;;;;;;-0.40;85.68;101641.25;1801475;78;21202;-72
2020/12/02 05:14:43;;;;;;;21.73;11.70;;;;;;;-0.44;85.63;101639.44;1799505;77;21273;-73
2020/12/02 05:17:28;;;;;;;20.90;11.25;;;;;;;-0.41;85.62;101643.06;1793257;77;21392;-72
2020/12/02 05:20:17;;;;;;;19.05;11.30;;;;;;;-0.38;85.66;101641.93;1773036;80;21119;-73
2020/12/02 05:22:47;;;;;;;19.48;11.65;;;;;;;-0.38;85.69;101647.18;1797465;77;21152;-73
2020/12/02 05:25:20;;;;;;;17.23;9.45;;;;;;;-0.38;85.69;101651.94;1781067;79;21766;-73
2020/12/02 05:27:50;;;;;;;17.98;10.68;;;;;;;-0.37;85.71;101643.56;1763260;80;21548;-74
2020/12/02 05:30:31;;;;;;;19.82;11.20;;;;;;;-0.38;85.67;101653.25;1788931;79;21419;-74
2020/12/02 05:33:16;;;;;;;19.12;11.90;;;;;;;-0.38;85.71;101658.50;1799546;78;21188;-73
2020/12/02 05:36:00;;;;;;;19.52;11.43;;;;;;;-0.37;85.70;101652.27;1803664;77;21116;-73
2020/12/02 05:38:37;;;;;;;18.05;10.05;;;;;;;-0.35;85.69;101652.94;1794296;78;21555;-73
2020/12/02 05:41:13;;;;;;;17.50;9.33;;;;;;;-0.34;85.72;101653.75;1782987;78;21691;-72
2020/12/02 05:43:46;;;;;;;18.60;10.45;;;;;;;-0.33;85.68;101654.92;1778687;78;21758;-75
2020/12/02 05:46:30;;;;;;;18.55;10.72;;;;;;;-0.36;85.66;101654.39;1782107;79;21163;-73
2020/12/02 05:49:09;;;;;;;20.75;10.82;;;;;;;-0.36;85.68;101659.17;1772552;78;21183;-73
2020/12/02 05:51:38;;;;;;;19.45;10.18;;;;;;;-0.35;85.73;101659.50;1778157;79;21202;-73
2020/12/02 05:54:12;;;;;;;18.45;10.58;;;;;;;-0.33;85.75;101664.11;1787269;78;21654;-73
2020/12/02 05:56:39;;;;;;;16.73;10.95;;;;;;;-0.32;85.72;101663.62;1749379;81;21809;-74
2020/12/02 05:59:07;;;;;;;19.98;12.05;;;;;;;-0.32;85.68;101664.44;1772551;78;21646;-73
2020/12/02 06:01:35;;;;;;;21.02;11.88;;;;;;;-0.31;85.70;101669.19;1772856;79;21140;-74
2020/12/02 06:04:03;;;;;;;18.05;11.40;;;;;;;-0.29;85.68;101675.94;1747537;79;21570;-74
2020/12/02 06:06:31;;;;;;;16.85;9.88;;;;;;;-0.31;85.67;101673.95;1782804;78;21115;-73
2020/12/02 06:09:00;;;;;;;18.20;10.48;;;;;;;-0.29;85.67;101674.63;1782945;78;21445;-73
2020/12/02 06:11:33;;;;;;;22.10;12.55;;;;;;;-0.32;85.69;101674.94;1783153;78;21185;-73
2020/12/02 06:14:06;;;;;;;;;;;;;;;-0.33;85.70;101678.55;1783520;78;22474;-73
2020/12/02 06:16:47;;;;;;;20.23;11.53;;;;;;;-0.32;85.74;101681.50;1779851;78;20256;-73
2020/12/02 06:19:23;;;;;;;19.55;12.05;;;;;;;-0.32;85.73;101676.25;1772965;79;21242;-72
2020/12/02 06:21:59;;;;;;;18.37;11.08;;;;;;;-0.26;85.77;101683.99;1773238;78;22701;-73
2020/12/02 06:24:47;;;;;;;19.80;11.25;;;;;;;-0.23;85.79;101682.37;1779683;78;21151;-73
2020/12/02 06:27:32;;;;;;;20.77;13.13;;;;;;;-0.21;85.76;101684.33;1782396;78;21551;-72
2020/12/02 06:30:14;;;;;;;18.27;11.43;;;;;;;-0.22;85.72;101690.56;1778182;78;21143;-73
2020/12/02 06:32:59;;;;;;;23.02;13.45;;;;;;;-0.20;85.71;101687.27;1786540;78;21796;-72
2020/12/02 06:35:45;;;;;;;18.47;10.10;;;;;;;-0.13;85.71;101684.37;1885853;74;22707;-73
2020/12/02 06:38:22;;;;;;;20.95;11.20;;;;;;;-0.20;85.63;101683.83;1840598;77;21113;-74
2020/12/02 06:41:01;;;;;;;16.40;9.55;;;;;;;-0.22;85.62;101684.50;1843896;77;21518;-73
2020/12/02 06:43:30;;;;;;;19.25;11.22;;;;;;;-0.22;85.67;101676.62;1835198;77;21605;-73
2020/12/02 06:46:03;;;;;;;19.82;11.20;;;;;;;-0.23;85.68;101682.37;1841399;77;21061;-73
2020/12/02 06:48:37;;;;;;;20.55;11.45;;;;;;;-0.26;85.71;101675.62;1848981;77;21191;-74
2020/12/02 06:51:06;;;;;;;17.23;10.65;;;;;;;-0.22;85.70;101681.88;1834759;77;21077;-74
2020/12/02 06:53:33;;;;;;;18.95;11.30;;;;;;;-0.20;85.68;101679.89;1823047;77;21361;-72
2020/12/02 06:56:04;;;;;;;19.57;10.25;;;;;;;-0.20;85.67;101678.58;1801706;78;21136;-73
2020/12/02 06:58:32;;;;;;;21.87;11.83;;;;;;;-0.19;85.65;101684.18;1779615;79;21160;-72
2020/12/02 07:01:02;;;;;;;21.68;12.53;;;;;;;-0.20;85.68;101683.34;1785442;78;21120;-73
2020/12/02 07:03:37;;;;;;;19.27;10.48;;;;;;;-0.17;85.69;101680.89;1782966;80;21049;-73
2020/12/02 07:06:26;;;;;;;17.92;10.18;;;;;;;-0.17;85.69;101680.39;1780826;79;21973;-73
2020/12/02 07:09:14;;;;;;;18.98;11.05;;;;;;;-0.16;85.70;101679.93;1784672;80;21576;-73
2020/12/02 07:12:01;;;;;;;21.10;11.18;;;;;;;-0.16;85.64;101680.75;1775179;79;21223;-74
2020/12/02 07:14:40;;;;;;;19.92;13.00;;;;;;;-0.05;85.63;101682.25;1781333;79;28571;-75
2020/12/02 07:17:11;;;;;;;20.57;12.10;;;;;;;-0.02;85.59;101690.63;1796861;79;21618;-73
2020/12/02 07:19:43;;;;;;;18.25;10.90;;;;;;;0.07;85.54;101688.05;1794166;79;21377;-73
2020/12/02 07:22:26;;;;;;;16.75;9.98;;;;;;;0.09;85.50;101690.00;1801472;78;21180;-72
2020/12/02 07:25:00;;;;;;;22.82;12.78;;;;;;;0.08;85.42;101685.25;1799462;79;21171;-74
2020/12/02 07:27:27;;;;;;;17.05;10.10;;;;;;;0.06;85.31;101695.08;1769914;79;21156;-73
2020/12/02 07:30:06;;;;;;;18.55;10.98;;;;;;;0.08;85.36;101693.12;1801344;79;21108;-73
2020/12/02 07:32:34;;;;;;;21.68;12.78;;;;;;;0.12;85.39;101690.50;1795689;79;21402;-74
2020/12/02 07:35:16;;;;;;;20.72;11.70;;;;;;;0.13;85.36;101685.60;1784002;79;21069;-73
2020/12/02 07:37:44;;;;;;;20.90;12.35;;;;;;;0.18;85.34;101686.42;1795660;79;24547;-73
2020/12/02 07:40:34;;;;;;;17.45;9.88;;;;;;;0.22;85.28;101695.13;1809867;79;21113;-73
2020/12/02 07:43:02;;;;;;;18.12;11.40;;;;;;;0.25;85.22;101689.23;1788043;79;21636;-73
2020/12/02 07:45:32;;;;;;;21.37;11.25;;;;;;;0.21;85.16;101683.48;1797748;77;22288;-73
2020/12/02 07:48:14;;;;;;;25.25;12.85;;;;;;;0.20;85.12;101694.48;1792272;79;21208;-74
2020/12/02 07:50:53;;;;;;;22.82;11.48;;;;;;;0.20;85.10;101697.60;1791995;79;21187;-73
2020/12/02 07:53:27;;;;;;;20.32;11.85;;;;;;;0.23;85.09;101698.10;1788190;79;21140;-73
2020/12/02 07:55:56;;;;;;;22.55;13.13;;;;;;;0.20;85.02;101695.80;1788842;79;21231;-74
2020/12/02 07:58:36;;;;;;;24.05;13.68;;;;;;;0.20;85.00;101699.73;1769697;79;22238;-74
2020/12/02 08:01:36;;;;;;;21.33;12.10;;;;;;;0.19;84.94;101696.75;1799913;79;21155;-73
2020/12/02 08:04:28;;;;;;;25.05;13.60;;;;;;;0.18;84.85;101701.69;1789871;79;21188;-73
2020/12/02 08:07:09;;;;;;;19.73;12.10;;;;;;;0.14;84.79;101695.61;1789897;79;21440;-73
2020/12/02 08:09:42;;;;;;;23.50;13.68;;;;;;;0.11;84.77;101699.38;1794907;79;21598;-75
2020/12/02 08:12:32;;;;;;;22.25;12.78;;;;;;;0.07;84.75;101698.06;1789923;79;22471;-74
2020/12/02 08:15:09;;;;;;;23.55;13.43;;;;;;;0.07;84.71;101696.74;1785545;79;21187;-73
2020/12/02 08:17:40;;;;;;;22.93;13.48;;;;;;;0.06;84.74;101692.45;1795345;79;21194;-74
2020/12/02 08:20:32;;;;;;;23.12;13.15;;;;;;;0.03;84.69;101695.39;1762329;79;21179;-73
2020/12/02 08:23:06;;;;;;;;;;;;;;;-0.03;84.73;101691.63;1796235;79;21555;-71
2020/12/02 08:26:04;;;;;;;23.25;13.08;;;;;;;-0.03;84.79;101694.25;1787650;79;21206;-75
2020/12/02 08:28:37;;;;;;;20.60;11.95;;;;;;;0.02;84.85;101692.45;1766192;79;21134;-72
2020/12/02 08:31:28;;;;;;;22.22;12.03;;;;;;;0.07;84.90;101693.30;1793827;79;21698;-74
2020/12/02 08:34:15;;;;;;;22.05;12.78;;;;;;;0.10;84.91;101689.86;1794369;79;21669;-73
2020/12/02 08:37:16;;;;;;;25.23;14.90;;;;;;;0.19;84.87;101682.80;1831195;76;23937;-72
2020/12/02 08:39:47;;;;;;;24.18;13.90;;;;;;;0.19;84.88;101679.68;1804133;77;21211;-72
2020/12/02 08:42:30;;;;;;;23.67;13.90;;;;;;;0.25;84.88;101675.59;1801236;77;21208;-73
2020/12/02 08:45:17;;;;;;;23.55;13.95;;;;;;;0.28;84.81;101674.45;1835212;77;21153;-74
2020/12/02 08:47:57;;;;;;;29.55;16.02;;;;;;;0.34;84.81;101669.38;1836976;77;21173;-74
2020/12/02 08:50:30;;;;;;;26.12;14.78;;;;;;;0.46;84.76;101667.23;1847389;75;21089;-73
2020/12/02 08:52:59;;;;;;;23.10;13.78;;;;;;;0.52;84.72;101655.25;1846329;77;21074;-74
2020/12/02 08:55:27;;;;;;;23.27;13.40;;;;;;;0.63;84.61;101664.97;1832952;75;21579;-72
2020/12/02 08:57:54;;;;;;;26.23;15.40;;;;;;;0.69;84.50;101663.00;1843770;76;21181;-72
2020/12/02 09:00:22;;;;;;;23.15;12.90;;;;;;;0.74;84.37;101660.36;1843681;77;21197;-73
2020/12/02 09:02:50;;;;;;;27.60;14.73;;;;;;;0.75;84.24;101654.92;1841678;77;21158;-73
2020/12/02 09:05:18;;;;;;;24.12;14.43;;;;;;;0.76;84.15;101660.53;1843995;77;21165;-72
2020/12/02 09:07:45;;;;;;;21.87;13.90;;;;;;;0.82;84.12;101656.39;1834364;76;21366;-74
2020/12/02 09:10:12;;;;;;;27.45;15.50;;;;;;;0.85;84.04;101656.88;1840742;77;21181;-73
2020/12/02 09:12:40;;;;;;;26.95;15.68;;;;;;;0.89;83.96;101650.83;1835768;76;21209;-74
2020/12/02 09:15:07;;;;;;;27.52;15.75;;;;;;;0.94;83.92;101653.27;1839871;77;21173;-73
2020/12/02 09:17:35;;;;;;;26.57;14.50;;;;;;;0.96;83.71;101657.56;1843943;77;21185;-74
2020/12/02 09:20:03;;;;;;;24.95;15.43;;;;;;;0.92;83.46;101660.52;1847116;75;21224;-73
2020/12/02 09:22:30;;;;;;;26.65;15.65;;;;;;;0.89;83.34;101657.40;1845797;75;21212;-72
2020/12/02 09:24:57;;;;;;;27.25;15.75;;;;;;;0.91;83.33;101656.22;1852130;77;21236;-71
2020/12/02 09:27:25;;;;;;;27.02;16.50;;;;;;;0.98;83.21;101652.94;1832400;77;21427;-74
2020/12/02 09:29:53;;;;;;;26.85;15.48;;;;;;;0.96;83.04;101653.11;1839498;75;21184;-73
2020/12/02 09:32:21;;;;;;;25.70;15.18;;;;;;;0.96;82.92;101651.80;1839913;75;21360;-74
2020/12/02 09:34:48;;;;;;;23.47;13.93;;;;;;;0.96;82.85;101650.98;1832064;76;21085;-74
2020/12/02 09:37:16;;;;;;;26.85;16.45;;;;;;;0.91;82.71;101648.33;1809086;77;21592;-74
2020/12/02 09:39:44;;;;;;;24.45;14.43;;;;;;;0.89;82.72;101646.87;1816522;77;21227;-76
2020/12/02 09:42:46;;;;;;;29.45;16.62;;;;;;;0.90;82.67;101643.25;1795279;79;21111;-74
2020/12/02 09:45:25;;;;;;;23.15;13.90;;;;;;;0.90;82.71;101644.06;1796683;77;21386;-74
2020/12/02 09:47:52;;;;;;;22.82;13.43;;;;;;;0.93;82.59;101638.48;1838347;77;21165;-74
2020/12/02 09:50:20;;;;;;;25.00;15.43;;;;;;;0.90;82.53;101644.06;1824835;77;21155;-73
2020/12/02 09:52:49;;;;;;;25.82;15.18;;;;;;;0.87;82.50;101644.40;1823047;77;21631;-74
2020/12/02 09:55:23;;;;;;;29.72;17.10;;;;;;;0.86;82.48;101641.95;1803656;77;21200;-74
2020/12/02 09:57:53;;;;;;;23.75;14.03;;;;;;;0.86;82.52;101640.14;1821694;77;21344;-74
2020/12/02 10:00:22;;;;;;;25.05;15.40;;;;;;;0.91;82.56;101640.94;1813791;77;21177;-73
2020/12/02 10:03:23;;;;;;;27.65;15.93;;;;;;;0.87;82.49;101642.27;1805714;77;21187;-73
2020/12/02 10:06:12;;;;;;;29.35;16.25;;;;;;;0.84;82.46;101631.58;1818678;77;21152;-72
2020/12/02 10:09:03;;;;;;;26.52;14.58;;;;;;;0.84;82.48;101634.70;1804345;77;21202;-74
2020/12/02 10:11:59;;;;;;;24.32;15.45;;;;;;;0.87;82.49;101639.14;1809617;77;21200;-74
2020/12/02 10:14:51;;;;;;;26.73;16.30;;;;;;;0.86;82.44;101632.74;1801886;77;21186;-74
2020/12/02 10:18:07;;;;;;;21.62;14.60;;;;;;;0.85;82.45;101641.60;1841560;75;21128;-74
2020/12/02 10:20:42;;;;;;;26.30;15.80;;;;;;;0.82;82.49;101640.12;1804550;77;21554;-74
2020/12/02 10:23:51;;;;;;;28.57;17.00;;;;;;;0.78;82.54;101645.89;1843366;76;21149;-74
2020/12/02 10:26:43;;;;;;;24.82;15.40;;;;;;;0.79;82.60;101643.58;1806068;77;21819;-75
2020/12/02 10:29:29;;;;;;;26.90;16.55;;;;;;;0.75;82.62;101647.53;1822267;77;21159;-74
2020/12/02 10:45:18;;;;;;;27.00;17.90;;;;;;;1.48;82.46;101635.55;1756651;79;23363;-74
2020/12/02 10:48:25;;;;;;;28.42;17.75;;;;;;;1.36;82.26;101638.22;1739848;82;21161;-72
2020/12/02 10:50:52;;;;;;;27.73;18.25;;;;;;;1.30;82.34;101632.31;1760974;80;21241;-73
2020/12/02 10:56:02;;;;;;;29.97;18.73;;;;;;;1.29;82.39;101638.58;1778423;78;23171;-73
2020/12/02 10:58:32;;;;;;;37.48;18.70;;;;;;;1.16;82.38;101635.97;1749894;80;21156;-69
2020/12/02 11:01:03;;;;;;;28.73;15.48;;;;;;;1.11;82.46;101636.95;1781387;80;21367;-72
2020/12/02 11:03:33;;;;;;;29.30;18.27;;;;;;;1.08;82.50;101632.02;1757760;79;26747;-72
2020/12/02 11:06:27;;;;;;;26.95;17.62;;;;;;;1.04;82.46;101635.17;1782460;80;21591;-71
2020/12/02 11:09:04;;;;;;;26.77;15.15;;;;;;;1.00;82.56;101637.31;1776661;79;21719;-70
2020/12/02 11:12:02;;;;;;;28.87;17.65;;;;;;;0.97;82.64;101632.88;1752128;80;21251;-70
2020/12/02 11:15:04;;;;;;;27.80;16.55;;;;;;;0.95;82.70;101627.77;1749143;80;21223;-70
2020/12/02 11:17:43;;;;;;;27.60;16.60;;;;;;;0.98;82.77;101629.26;1708625;81;21235;-71
2020/12/02 11:20:21;;;;;;;20.82;13.45;;;;;;;1.00;82.90;101624.66;1783277;79;21168;-71
2020/12/02 11:23:13;;;;;;;24.20;14.85;;;;;;;1.02;83.04;101621.34;1754114;80;21173;-70
2020/12/02 11:26:16;;;;;;;24.32;15.70;;;;;;;1.01;82.99;101619.22;1750346;80;21167;-69
2020/12/02 11:28:45;;;;;;;29.90;18.75;;;;;;;0.98;82.96;101622.18;1752306;80;21381;-70
2020/12/02 11:31:48;;;;;;;22.37;14.85;;;;;;;0.96;83.00;101618.91;1749783;81;21409;-70
2020/12/02 11:35:01;;;;;;;23.12;14.07;;;;;;;0.95;83.03;101618.56;1753548;79;21204;-71
2020/12/02 11:37:40;;;;;;;24.43;14.68;;;;;;;0.92;83.13;101618.90;1755023;80;21176;-72
2020/12/02 11:40:24;;;;;;;28.62;20.72;;;;;;;0.92;83.14;101614.95;1750940;79;27987;-73
2020/12/02 11:43:23;;;;;;;25.57;17.12;;;;;;;0.94;83.15;101621.70;1743015;81;21191;-76
2020/12/02 11:45:52;;;;;;;27.80;18.45;;;;;;;1.02;83.13;101620.88;1746405;81;21220;-73
2020/12/02 11:48:27;;;;;;;25.25;15.83;;;;;;;0.97;83.12;101619.23;1750722;81;21457;-74
2020/12/02 11:51:27;;;;;;;23.80;15.25;;;;;;;0.95;83.16;101617.25;1757584;79;21160;-78
2020/12/02 11:53:59;;;;;;;25.08;16.40;;;;;;;0.94;83.21;101621.70;1738083;81;21583;-72
2020/12/02 11:56:38;;;;;;;;;;;;;;;0.97;83.27;101617.91;1745020;81;21194;-72
2020/12/02 11:59:19;;;;;;;21.97;13.18;;;;;;;1.01;83.28;101616.59;1738066;81;21417;-74
2020/12/02 12:01:57;;;;;;;23.73;15.32;;;;;;;0.96;83.29;101613.66;1728367;81;21196;-74
2020/12/02 12:04:36;;;;;;;22.75;14.65;;;;;;;0.92;83.28;101616.27;1721470;81;21168;-71
2020/12/02 12:07:53;;;;;;;24.60;16.02;;;;;;;0.88;83.34;101617.09;1726813;82;21175;-71
2020/12/02 12:10:32;;;;;;;20.50;14.33;;;;;;;0.87;83.38;101619.41;1720065;82;21175;-71